createdAt,value
2023-01-25T00:02:13.991Z,28.20
2023-01-25T00:04:42.930Z,31.30
2023-01-25T00:07:11.297Z,29.80
2023-01-25T00:09:39.580Z,27.90
2023-01-25T00:12:08.018Z,27.00
2023-01-25T00:14:36.430Z,22.30
2023-01-25T00:17:05.428Z,23.60
2023-01-25T00:19:33.702Z,24.90
2023-01-25T00:22:02.761Z,23.10
2023-01-25T00:24:31.393Z,22.40
2023-01-25T00:26:59.670Z,19.10
2023-01-25T00:29:27.925Z,19.50
2023-01-25T00:32:21.246Z,19.70
2023-01-25T00:34:50.679Z,18.50
2023-01-25T00:37:39.724Z,18.10
2023-01-25T00:40:12.451Z,18.90
2023-01-25T00:42:41.352Z,19.50
2023-01-25T00:45:12.289Z,22.00
2023-01-25T00:47:41.216Z,22.30
2023-01-25T00:50:11.357Z,21.30
2023-01-25T00:52:41.524Z,22.00
2023-01-25T00:55:10.592Z,21.90
2023-01-25T00:57:40.034Z,23.60
2023-01-25T01:00:11.653Z,21.60
2023-01-25T01:02:40.075Z,19.90
2023-01-25T01:05:09.950Z,18.60
2023-01-25T01:07:39.172Z,18.60
2023-01-25T01:10:09.546Z,19.00
2023-01-25T01:12:38.111Z,19.00
2023-01-25T01:15:10.488Z,18.10
2023-01-25T01:17:39.256Z,15.60
2023-01-25T01:20:10.875Z,16.60
2023-01-25T01:22:39.459Z,16.50
2023-01-25T01:25:10.469Z,15.80
2023-01-25T01:27:39.372Z,16.50
2023-01-25T01:30:10.927Z,20.00
2023-01-25T01:32:39.720Z,21.30
2023-01-25T01:35:09.684Z,20.80
2023-01-25T01:37:42.859Z,19.70
2023-01-25T01:42:57.050Z,19.10
2023-01-25T01:45:52.107Z,19.60
2023-01-25T01:48:32.781Z,20.70
2023-01-25T01:51:08.138Z,21.50
2023-01-25T01:53:37.701Z,20.00
2023-01-25T01:56:13.160Z,21.00
2023-01-25T01:58:42.796Z,20.40
2023-01-25T02:01:11.839Z,20.30
2023-01-25T02:03:40.884Z,20.00
2023-01-25T02:06:15.238Z,18.80
2023-01-25T02:08:44.365Z,21.60
2023-01-25T02:11:13.363Z,19.70
2023-01-25T02:13:41.847Z,20.80
2023-01-25T02:16:16.219Z,20.60
2023-01-25T02:18:44.741Z,20.90
2023-01-25T02:21:13.980Z,22.80
2023-01-25T02:23:50.234Z,22.50
2023-01-25T02:26:19.272Z,22.90
2023-01-25T02:28:50.466Z,25.40
2023-01-25T02:31:19.552Z,22.30
2023-01-25T02:33:49.716Z,23.40
2023-01-25T02:36:25.378Z,24.30
2023-01-25T02:38:57.230Z,26.60
2023-01-25T02:41:31.109Z,17.90
2023-01-25T02:44:00.094Z,23.80
2023-01-25T02:46:31.147Z,24.60
2023-01-25T02:49:00.600Z,25.20
2023-01-25T02:51:33.127Z,25.80
2023-01-25T02:54:02.141Z,24.80
2023-01-25T02:56:31.233Z,26.20
2023-01-25T02:59:04.640Z,27.20
2023-01-25T03:01:35.603Z,25.90
2023-01-25T03:04:05.182Z,26.40
2023-01-25T03:06:35.572Z,25.60
2023-01-25T03:09:05.736Z,25.50
2023-01-25T03:11:34.675Z,25.70
2023-01-25T03:14:03.277Z,26.20
2023-01-25T03:16:32.022Z,27.60
2023-01-25T03:19:00.545Z,28.20
2023-01-25T03:21:29.721Z,28.40
2023-01-25T03:24:00.772Z,29.50
2023-01-25T03:26:54.830Z,26.80
2023-01-25T03:29:28.097Z,28.30
2023-01-25T03:31:56.940Z,29.30
2023-01-25T03:34:25.732Z,32.00
2023-01-25T03:36:54.042Z,30.70
2023-01-25T03:39:22.607Z,33.90
2023-01-25T03:41:51.091Z,30.40
2023-01-25T03:44:19.439Z,31.00
2023-01-25T03:46:47.900Z,30.70
2023-01-25T03:49:17.794Z,30.30
2023-01-25T03:51:46.969Z,30.60
2023-01-25T03:54:15.768Z,31.50
2023-01-25T03:56:44.219Z,30.20
2023-01-25T03:59:17.135Z,31.60
2023-01-25T04:01:46.421Z,32.00
2023-01-25T04:04:15.126Z,31.40
2023-01-25T04:06:44.978Z,31.10
2023-01-25T04:09:13.803Z,34.00
2023-01-25T04:11:50.004Z,31.70
2023-01-25T04:14:28.345Z,30.90
2023-01-25T04:17:04.663Z,30.10
2023-01-25T04:19:37.987Z,29.80
2023-01-25T04:22:08.217Z,32.20
2023-01-25T04:24:39.099Z,30.20
2023-01-25T04:27:08.466Z,29.80
2023-01-25T04:29:42.261Z,29.80
2023-01-25T04:32:15.281Z,25.90
2023-01-25T04:34:44.218Z,27.10
2023-01-25T04:37:15.989Z,20.80
2023-01-25T04:39:59.350Z,26.80
2023-01-25T04:42:28.348Z,25.30
2023-01-25T04:44:58.168Z,27.50
2023-01-25T04:47:28.166Z,28.30
2023-01-25T04:49:57.339Z,25.20
2023-01-25T04:52:26.488Z,27.20
2023-01-25T04:54:54.799Z,26.20
2023-01-25T04:57:23.564Z,26.50
2023-01-25T04:59:53.678Z,26.30
2023-01-25T05:02:23.027Z,27.10
2023-01-25T05:04:51.924Z,25.80
2023-01-25T05:07:21.214Z,27.30
2023-01-25T05:09:49.708Z,26.90
2023-01-25T05:12:20.333Z,24.90
2023-01-25T05:14:55.687Z,26.10
2023-01-25T05:17:24.762Z,26.00
2023-01-25T05:19:53.299Z,25.90
2023-01-25T05:22:23.904Z,24.90
2023-01-25T05:24:55.044Z,24.30
2023-01-25T05:27:23.737Z,23.30
2023-01-25T05:29:56.002Z,23.40
2023-01-25T05:32:50.910Z,21.70
2023-01-25T05:35:19.556Z,21.80
2023-01-25T05:37:48.046Z,20.20
2023-01-25T05:40:20.436Z,20.30
2023-01-25T05:42:55.280Z,18.80
2023-01-25T05:45:23.761Z,19.20
2023-01-25T05:47:56.322Z,17.60
2023-01-25T05:53:05.223Z,18.30
2023-01-25T05:55:36.260Z,16.10
2023-01-25T05:58:07.979Z,15.30
2023-01-25T06:00:36.427Z,14.90
2023-01-25T06:03:05.095Z,13.70
2023-01-25T06:05:37.663Z,13.10
2023-01-25T06:08:06.244Z,13.00
2023-01-25T06:10:43.946Z,13.80
2023-01-25T06:13:12.358Z,14.60
2023-01-25T06:15:40.698Z,15.20
2023-01-25T06:18:31.270Z,14.90
2023-01-25T06:21:18.305Z,16.70
2023-01-25T06:23:46.797Z,16.60
2023-01-25T06:26:16.021Z,15.20
2023-01-25T06:28:44.811Z,14.00
2023-01-25T06:31:15.063Z,15.40
2023-01-25T06:33:47.677Z,14.40
2023-01-25T06:36:19.670Z,12.60
2023-01-25T06:38:51.201Z,16.80
2023-01-25T06:41:20.432Z,17.90
2023-01-25T06:43:51.396Z,18.60
2023-01-25T06:46:20.111Z,16.90
2023-01-25T06:48:48.472Z,17.70
2023-01-25T06:51:17.940Z,16.80
2023-01-25T06:53:47.729Z,13.80
2023-01-25T06:56:17.979Z,14.10
2023-01-25T06:58:47.061Z,13.30
2023-01-25T07:01:18.998Z,12.50
2023-01-25T07:03:50.094Z,13.20
2023-01-25T07:06:19.368Z,10.40
2023-01-25T07:08:48.240Z,10.80
2023-01-25T07:11:18.192Z,9.60
2023-01-25T07:13:47.563Z,10.90
2023-01-25T07:16:19.085Z,11.30
2023-01-25T07:18:47.666Z,10.80
2023-01-25T07:21:17.843Z,10.60
2023-01-25T07:23:46.957Z,11.40
2023-01-25T07:26:18.032Z,14.30
2023-01-25T07:28:47.764Z,11.50
2023-01-25T07:31:17.458Z,12.30
2023-01-25T07:33:49.800Z,11.40
2023-01-25T07:36:19.189Z,9.20
2023-01-25T07:38:48.308Z,12.20
2023-01-25T07:41:17.313Z,10.90
2023-01-25T07:43:46.128Z,9.20
2023-01-25T07:46:19.744Z,9.70
2023-01-25T07:48:49.780Z,11.50
2023-01-25T07:51:23.319Z,11.60
2023-01-25T07:53:53.941Z,11.30
2023-01-25T07:56:24.451Z,11.80
2023-01-25T07:58:57.309Z,10.60
2023-01-25T08:01:27.713Z,10.70
2023-01-25T08:03:56.729Z,11.90
2023-01-25T08:06:29.963Z,11.90
2023-01-25T08:08:59.428Z,11.40
2023-01-25T08:11:30.024Z,9.10
2023-01-25T08:14:01.179Z,10.00
2023-01-25T08:16:31.225Z,9.60
2023-01-25T08:19:02.707Z,9.60
2023-01-25T08:21:32.849Z,9.00
2023-01-25T08:24:04.087Z,10.00
2023-01-25T08:26:33.065Z,10.60
2023-01-25T08:29:01.600Z,10.80
2023-01-25T08:31:32.940Z,10.90
2023-01-25T08:34:04.488Z,11.80
2023-01-25T08:36:33.807Z,11.10
2023-01-25T08:39:05.550Z,10.30
2023-01-25T08:41:35.636Z,9.00
2023-01-25T08:44:05.481Z,8.60
2023-01-25T08:46:34.842Z,9.90
2023-01-25T08:49:04.330Z,29.50
2023-01-25T08:51:33.627Z,12.00
2023-01-25T08:54:07.500Z,9.80
2023-01-25T08:56:37.848Z,11.70
2023-01-25T08:59:10.472Z,10.80
2023-01-25T09:01:39.397Z,11.00
2023-01-25T09:04:08.611Z,12.20
2023-01-25T09:06:37.203Z,12.60
2023-01-25T09:09:07.738Z,11.90
2023-01-25T09:11:37.552Z,12.90
2023-01-25T09:14:06.469Z,12.20
2023-01-25T09:16:35.390Z,11.90
2023-01-25T09:19:05.209Z,13.10
2023-01-25T09:21:36.914Z,12.90
2023-01-25T09:24:07.894Z,11.20
2023-01-25T09:26:39.439Z,15.80
2023-01-25T09:29:10.483Z,15.00
2023-01-25T09:31:40.060Z,11.60
2023-01-25T09:34:19.714Z,12.40
2023-01-25T09:36:48.037Z,12.80
2023-01-25T09:39:16.925Z,13.60
2023-01-25T09:42:15.438Z,12.50
2023-01-25T09:45:10.713Z,11.90
2023-01-25T09:47:45.750Z,13.60
2023-01-25T09:50:31.640Z,12.60
2023-01-25T09:53:16.446Z,12.30
2023-01-25T09:55:50.379Z,11.70
2023-01-25T09:58:22.549Z,12.80
2023-01-25T10:00:58.924Z,13.80
2023-01-25T10:03:33.482Z,14.30
2023-01-25T10:06:03.042Z,13.50
2023-01-25T10:08:36.112Z,14.10
2023-01-25T10:11:20.134Z,14.40
2023-01-25T10:13:49.101Z,13.90
2023-01-25T10:16:26.151Z,13.90
2023-01-25T10:19:01.139Z,13.80
2023-01-25T10:21:35.099Z,15.10
2023-01-25T10:24:24.618Z,14.70
2023-01-25T10:26:56.476Z,14.10
2023-01-25T10:29:28.121Z,15.40
2023-01-25T10:32:02.351Z,17.90
2023-01-25T10:34:54.293Z,15.60
2023-01-25T10:37:27.471Z,14.90
2023-01-25T10:40:02.360Z,15.50
2023-01-25T10:42:38.234Z,14.90
2023-01-25T10:45:13.354Z,15.60
2023-01-25T10:47:45.520Z,14.50
2023-01-25T10:50:45.563Z,15.80
2023-01-25T10:53:35.740Z,15.10
2023-01-25T10:56:19.162Z,13.30
2023-01-25T10:58:48.920Z,13.80
2023-01-25T11:01:28.839Z,13.80
2023-01-25T11:03:58.181Z,13.80
2023-01-25T11:06:35.007Z,15.10
2023-01-25T11:09:30.769Z,13.60
2023-01-25T11:12:01.578Z,13.00
2023-01-25T11:14:31.595Z,13.10
2023-01-25T11:17:01.671Z,13.50
2023-01-25T11:19:34.114Z,14.90
2023-01-25T11:22:19.442Z,14.10
2023-01-25T11:24:47.886Z,14.60
2023-01-25T11:27:20.027Z,13.30
2023-01-25T11:30:09.753Z,16.20
2023-01-25T11:32:40.175Z,27.70
2023-01-25T11:35:14.591Z,15.60
2023-01-25T11:37:58.429Z,15.50
2023-01-25T11:40:38.068Z,14.40
2023-01-25T11:43:20.940Z,15.50
2023-01-25T11:46:25.075Z,17.50
2023-01-25T11:49:09.270Z,15.80
2023-01-25T11:51:43.306Z,15.00
2023-01-25T11:54:40.795Z,16.20
2023-01-25T11:57:28.383Z,13.40
2023-01-25T12:00:10.697Z,13.80
2023-01-25T12:03:05.625Z,16.10
2023-01-25T12:05:50.086Z,15.20
2023-01-25T12:08:40.482Z,14.30
2023-01-25T12:11:16.689Z,32.10
2023-01-25T12:14:00.195Z,20.00
2023-01-25T12:16:51.875Z,15.80
2023-01-25T12:19:36.410Z,15.20
2023-01-25T12:22:34.520Z,16.60
2023-01-25T12:25:17.018Z,17.90
2023-01-25T12:28:02.609Z,16.70
2023-01-25T12:30:42.124Z,17.70
2023-01-25T12:33:16.544Z,14.70
2023-01-25T12:35:51.798Z,18.20
2023-01-25T12:38:26.981Z,16.50
2023-01-25T12:40:59.075Z,17.80
2023-01-25T12:43:36.757Z,17.00
2023-01-25T12:46:15.631Z,16.60
2023-01-25T12:48:49.057Z,18.20
2023-01-25T12:51:18.840Z,17.40
2023-01-25T12:53:48.343Z,18.30
2023-01-25T12:56:32.081Z,15.60
2023-01-25T12:59:11.118Z,17.40
2023-01-25T13:01:45.232Z,18.10
2023-01-25T13:04:27.524Z,19.10
2023-01-25T13:07:01.299Z,18.20
2023-01-25T13:09:40.262Z,18.30
2023-01-25T13:12:12.251Z,18.00
2023-01-25T13:14:42.098Z,18.30
2023-01-25T13:17:22.535Z,19.60
2023-01-25T13:19:53.118Z,19.30
2023-01-25T13:23:00.141Z,17.50
2023-01-25T13:25:28.589Z,21.20
2023-01-25T13:28:28.559Z,19.30
2023-01-25T13:30:57.072Z,19.80
2023-01-25T13:33:35.299Z,22.40
2023-01-25T13:36:38.632Z,21.60
2023-01-25T13:41:59.627Z,18.30
2023-01-25T13:44:30.279Z,18.10
2023-01-25T13:47:02.016Z,17.40
2023-01-25T13:49:36.632Z,19.00
2023-01-25T13:52:05.732Z,17.20
2023-01-25T13:54:41.834Z,18.60
2023-01-25T13:57:14.281Z,18.50
2023-01-25T14:02:18.373Z,18.30
2023-01-25T14:04:48.895Z,20.00
2023-01-25T14:07:19.815Z,19.20
2023-01-25T14:09:49.218Z,18.90
2023-01-25T14:12:30.558Z,20.10
2023-01-25T14:15:16.111Z,19.30
2023-01-25T14:17:45.007Z,19.20
2023-01-25T14:20:21.782Z,19.90
2023-01-25T14:22:51.297Z,20.80
2023-01-25T14:25:21.953Z,22.70
2023-01-25T14:27:53.428Z,19.50
2023-01-25T14:30:24.515Z,20.50
2023-01-25T14:32:54.503Z,23.90
2023-01-25T14:35:56.316Z,23.90
2023-01-25T14:38:29.891Z,25.70
2023-01-25T14:41:03.197Z,25.20
2023-01-25T14:43:33.868Z,25.60
2023-01-25T14:46:22.846Z,24.60
2023-01-25T14:49:05.760Z,24.70
2023-01-25T14:51:39.985Z,23.40
2023-01-25T14:54:18.038Z,26.30
2023-01-25T14:56:48.565Z,23.80
2023-01-25T14:59:40.163Z,25.10
2023-01-25T15:02:23.301Z,22.30
2023-01-25T15:05:00.737Z,23.30
2023-01-25T15:07:41.277Z,24.50
2023-01-25T15:10:18.827Z,26.10
2023-01-25T15:13:07.696Z,25.10
2023-01-25T15:15:52.837Z,24.50
2023-01-25T15:18:47.001Z,24.30
2023-01-25T15:21:15.525Z,23.80
2023-01-25T15:23:45.916Z,23.70
2023-01-25T15:26:20.008Z,22.70
2023-01-25T15:28:49.497Z,22.30
2023-01-25T15:31:21.924Z,22.30
2023-01-25T15:36:19.599Z,19.10
2023-01-25T15:38:47.904Z,21.60
2023-01-25T15:41:17.999Z,21.60
2023-01-25T15:43:46.719Z,20.90
2023-01-25T15:46:17.693Z,22.80
2023-01-25T15:48:47.864Z,22.10
2023-01-25T15:51:16.849Z,23.50
2023-01-25T15:53:46.209Z,22.60
2023-01-25T15:56:17.748Z,21.90
2023-01-25T15:58:49.490Z,22.80
2023-01-25T16:01:18.346Z,20.80
2023-01-25T16:03:46.807Z,20.80
2023-01-25T16:06:31.148Z,23.90
2023-01-25T16:08:59.890Z,21.10
2023-01-25T16:11:28.296Z,21.00
2023-01-25T16:13:57.174Z,22.50
2023-01-25T16:16:26.379Z,23.00
2023-01-25T16:18:55.026Z,23.40
2023-01-25T16:21:24.077Z,25.20
2023-01-25T16:23:52.704Z,22.10
2023-01-25T16:26:25.649Z,23.50
2023-01-25T16:28:54.427Z,23.80
2023-01-25T16:31:32.543Z,23.90
2023-01-25T16:34:02.238Z,24.40
2023-01-25T16:36:31.210Z,25.10
2023-01-25T16:39:09.296Z,26.50
2023-01-25T16:41:37.802Z,25.70
2023-01-25T16:44:06.258Z,26.10
2023-01-25T16:46:34.706Z,25.40
2023-01-25T16:49:05.983Z,25.70
2023-01-25T16:51:36.257Z,26.70
2023-01-25T16:54:04.823Z,26.10
2023-01-25T16:56:35.472Z,25.50
2023-01-25T16:59:05.565Z,26.90
2023-01-25T17:01:34.300Z,23.10
2023-01-25T17:04:02.911Z,22.90
2023-01-25T17:06:34.127Z,24.50
2023-01-25T17:09:16.501Z,25.70
2023-01-25T17:11:50.198Z,25.40
2023-01-25T17:14:19.042Z,22.30
2023-01-25T17:16:50.507Z,23.90
2023-01-25T17:19:20.155Z,22.50
2023-01-25T17:21:49.221Z,21.90
2023-01-25T17:24:20.649Z,23.40
2023-01-25T17:26:50.157Z,21.70
2023-01-25T17:29:18.596Z,20.80
2023-01-25T17:31:47.466Z,20.20
2023-01-25T17:34:17.772Z,20.70
2023-01-25T17:36:46.328Z,21.70
2023-01-25T17:39:17.196Z,21.00
2023-01-25T17:41:47.261Z,22.00
2023-01-25T17:44:20.065Z,21.20
2023-01-25T17:46:49.901Z,21.70
2023-01-25T17:49:21.604Z,21.60
2023-01-25T17:51:50.151Z,22.90
2023-01-25T17:54:19.052Z,26.50
2023-01-25T17:56:47.541Z,25.10
2023-01-25T17:59:16.186Z,23.40
2023-01-25T18:01:44.854Z,25.50
2023-01-25T18:04:16.744Z,24.60
2023-01-25T18:06:45.662Z,25.70
2023-01-25T18:09:14.120Z,27.00
2023-01-25T18:11:42.686Z,25.20
2023-01-25T18:14:15.900Z,24.80
2023-01-25T18:16:45.646Z,25.10
2023-01-25T18:19:14.838Z,28.90
2023-01-25T18:21:43.901Z,27.80
2023-01-25T18:24:29.517Z,24.80
2023-01-25T18:27:05.209Z,25.60
2023-01-25T18:29:45.543Z,27.10
2023-01-25T18:32:14.641Z,24.90
2023-01-25T18:34:43.477Z,26.90
2023-01-25T18:37:17.605Z,26.50
2023-01-25T18:39:46.748Z,33.00
2023-01-25T18:42:15.579Z,29.60
2023-01-25T18:44:47.601Z,27.10
2023-01-25T18:47:18.101Z,26.50
2023-01-25T18:49:48.681Z,28.40
2023-01-25T18:52:18.554Z,29.10
2023-01-25T18:54:48.309Z,30.40
2023-01-25T18:57:17.437Z,30.30
2023-01-25T18:59:46.312Z,29.00
2023-01-25T19:02:16.363Z,29.90
2023-01-25T19:04:45.828Z,30.00
2023-01-25T19:07:14.575Z,30.80
2023-01-25T19:09:43.309Z,29.40
2023-01-25T19:12:12.190Z,29.70
2023-01-25T19:14:40.697Z,29.60
2023-01-25T19:17:09.395Z,30.60
2023-01-25T19:19:37.757Z,31.20
2023-01-25T19:22:06.183Z,31.10
2023-01-25T19:24:34.493Z,31.40
2023-01-25T19:27:03.150Z,31.30
2023-01-25T19:29:31.624Z,31.50
2023-01-25T19:31:59.977Z,33.60
2023-01-25T19:34:29.214Z,31.10
2023-01-25T19:36:59.037Z,32.70
2023-01-25T19:39:28.417Z,31.50
2023-01-25T19:41:57.291Z,30.50
2023-01-25T19:44:26.219Z,30.80
2023-01-25T19:46:54.631Z,32.60
2023-01-25T19:49:23.065Z,34.20
2023-01-25T19:51:52.489Z,33.90
2023-01-25T19:54:22.365Z,34.10
2023-01-25T19:56:51.559Z,35.40
2023-01-25T19:59:25.180Z,41.90
2023-01-25T20:01:54.513Z,34.10
2023-01-25T20:04:24.352Z,36.20
2023-01-25T20:06:53.114Z,38.00
2023-01-25T20:09:28.448Z,39.10
2023-01-25T20:11:58.516Z,38.70
2023-01-25T20:14:26.969Z,42.50
2023-01-25T20:16:55.475Z,44.00
2023-01-25T20:19:23.943Z,38.50
2023-01-25T20:21:52.795Z,40.70
2023-01-25T20:24:21.496Z,40.30
2023-01-25T20:26:50.988Z,41.50
2023-01-25T20:29:20.793Z,41.30
2023-01-25T20:31:49.291Z,40.00
2023-01-25T20:34:19.817Z,42.50
2023-01-25T20:36:49.754Z,42.60
2023-01-25T20:39:19.768Z,45.50
2023-01-25T20:41:49.331Z,45.00
2023-01-25T20:44:18.014Z,45.60
2023-01-25T20:46:46.664Z,44.00
2023-01-25T20:49:17.465Z,41.80
2023-01-25T20:51:46.477Z,43.80
2023-01-25T20:54:16.234Z,41.30
2023-01-25T20:56:47.179Z,42.10
2023-01-25T20:59:17.753Z,43.30
2023-01-25T21:01:50.118Z,40.60
2023-01-25T21:04:20.612Z,40.30
2023-01-25T21:06:49.065Z,42.70
2023-01-25T21:09:18.888Z,38.80
2023-01-25T21:11:49.079Z,37.90
2023-01-25T21:14:18.870Z,37.00
2023-01-25T21:16:48.847Z,39.80
2023-01-25T21:19:18.564Z,39.40
2023-01-25T21:21:48.264Z,39.20
2023-01-25T21:24:17.649Z,39.20
2023-01-25T21:26:47.365Z,38.90
2023-01-25T21:29:15.764Z,41.30
2023-01-25T21:31:45.917Z,41.40
2023-01-25T21:34:14.414Z,40.60
2023-01-25T21:36:43.695Z,43.30
2023-01-25T21:39:12.380Z,39.30
2023-01-25T21:41:41.152Z,41.30
2023-01-25T21:44:28.733Z,40.30
2023-01-25T21:47:23.537Z,41.10
2023-01-25T21:50:04.190Z,40.30
2023-01-25T21:52:36.144Z,39.40
2023-01-25T21:55:06.382Z,41.80
2023-01-25T21:57:35.189Z,42.20
2023-01-25T22:00:05.906Z,43.90
2023-01-25T22:02:35.186Z,39.70
2023-01-25T22:05:03.876Z,41.30
2023-01-25T22:07:33.744Z,40.80
2023-01-25T22:10:02.426Z,41.00
2023-01-25T22:12:30.933Z,40.70
2023-01-25T22:14:59.442Z,38.60
2023-01-25T22:17:28.605Z,39.10
2023-01-25T22:19:57.466Z,39.60
2023-01-25T22:22:25.969Z,39.90
2023-01-25T22:24:56.134Z,38.70
2023-01-25T22:27:37.215Z,38.00
2023-01-25T22:30:09.946Z,40.90
2023-01-25T22:32:38.736Z,39.20
2023-01-25T22:35:09.566Z,39.50
2023-01-25T22:37:38.449Z,35.90
2023-01-25T22:40:10.553Z,37.80
2023-01-25T22:42:39.392Z,37.40
2023-01-25T22:45:09.823Z,38.60
2023-01-25T22:47:40.713Z,38.70
2023-01-25T22:50:11.920Z,38.30
2023-01-25T22:52:40.880Z,39.20
2023-01-25T22:55:10.262Z,39.20
2023-01-25T22:57:38.511Z,36.10
2023-01-25T23:00:12.187Z,33.80
2023-01-25T23:02:40.993Z,37.40
2023-01-25T23:05:10.752Z,34.20
2023-01-25T23:07:39.655Z,35.20
2023-01-25T23:10:11.505Z,33.60
2023-01-25T23:12:40.335Z,32.50
2023-01-25T23:15:14.634Z,34.70
2023-01-25T23:18:01.659Z,35.90
2023-01-25T23:20:30.462Z,34.60
2023-01-25T23:22:59.105Z,32.10
2023-01-25T23:25:27.685Z,34.70
2023-01-25T23:27:56.183Z,30.70
2023-01-25T23:30:24.953Z,32.00
2023-01-25T23:32:54.016Z,31.00
2023-01-25T23:35:22.733Z,32.50
2023-01-25T23:37:51.247Z,34.00
2023-01-25T23:40:20.245Z,33.30
2023-01-25T23:42:49.097Z,32.00
2023-01-25T23:45:17.856Z,32.10
2023-01-25T23:47:46.766Z,30.00
2023-01-25T23:50:16.028Z,32.80
2023-01-25T23:52:44.412Z,33.40
2023-01-25T23:55:13.170Z,31.70
2023-01-25T23:57:41.743Z,32.30
